createdAt,value
2023-04-23T00:02:03.352Z,99593.91
2023-04-23T00:05:09.376Z,99580.28
2023-04-23T00:08:12.798Z,99586.16
2023-04-23T00:11:17.278Z,99585.28
2023-04-23T00:14:23.399Z,99585.19
2023-04-23T00:17:26.260Z,99581.41
2023-04-23T00:20:29.029Z,99586.97
2023-04-23T00:23:31.710Z,99577.00
2023-04-23T00:26:35.740Z,99584.13
2023-04-23T00:29:46.356Z,99582.56
2023-04-23T00:32:49.090Z,99579.66
2023-04-23T00:35:52.271Z,99567.66
2023-04-23T00:38:55.041Z,99581.19
2023-04-23T00:42:00.374Z,99586.84
2023-04-23T00:45:03.945Z,99587.97
2023-04-23T00:48:08.035Z,99590.03
2023-04-23T00:51:13.030Z,99583.72
2023-04-23T00:54:16.109Z,99590.16
2023-04-23T00:57:20.286Z,99586.91
2023-04-23T01:00:23.371Z,99590.59
2023-04-23T01:03:29.859Z,99589.06
2023-04-23T01:06:32.623Z,99556.00
2023-04-23T01:09:35.500Z,99591.50
2023-04-23T01:12:39.662Z,99588.03
2023-04-23T01:15:42.710Z,99588.75
2023-04-23T01:18:47.366Z,99595.34
2023-04-23T01:21:51.441Z,99599.91
2023-04-23T01:24:55.937Z,99597.28
2023-04-23T01:27:59.464Z,99600.53
2023-04-23T01:31:04.121Z,99591.94
2023-04-23T01:34:07.778Z,99595.88
2023-04-23T01:37:11.372Z,99596.31
2023-04-23T01:40:15.777Z,99597.53
2023-04-23T01:43:18.664Z,99593.06
2023-04-23T01:46:24.868Z,99597.00
2023-04-23T01:49:27.735Z,99591.00
2023-04-23T01:52:30.406Z,99599.59
2023-04-23T01:55:35.745Z,99582.41
2023-04-23T01:58:38.868Z,99606.03
2023-04-23T02:01:46.640Z,99603.22
2023-04-23T02:04:52.900Z,99612.16
2023-04-23T02:07:56.270Z,99606.34
2023-04-23T02:11:00.587Z,99615.06
2023-04-23T02:14:05.444Z,99615.72
2023-04-23T02:17:08.226Z,99619.44
2023-04-23T02:20:12.127Z,99625.97
2023-04-23T02:23:14.823Z,99618.78
2023-04-23T02:26:19.601Z,99620.50
2023-04-23T02:29:22.302Z,99625.44
2023-04-23T02:32:25.071Z,99620.97
2023-04-23T02:35:27.889Z,99620.75
2023-04-23T02:38:30.553Z,99619.97
2023-04-23T02:41:34.698Z,99618.34
2023-04-23T02:44:37.365Z,99622.91
2023-04-23T02:47:40.386Z,99626.50
2023-04-23T02:50:43.048Z,99629.38
2023-04-23T02:53:45.807Z,99637.09
2023-04-23T02:56:49.925Z,99642.84
2023-04-23T02:59:52.755Z,99636.00
2023-04-23T03:02:55.754Z,99632.72
2023-04-23T03:05:59.459Z,99631.72
2023-04-23T03:09:02.312Z,99630.84
2023-04-23T03:12:06.639Z,99625.41
2023-04-23T03:15:10.293Z,99623.56
2023-04-23T03:18:12.939Z,99631.72
2023-04-23T03:21:15.802Z,99624.44
2023-04-23T03:24:19.049Z,99619.75
2023-04-23T03:27:23.012Z,99618.22
2023-04-23T03:30:25.962Z,99625.31
2023-04-23T03:33:28.641Z,99621.47
2023-04-23T03:36:32.294Z,99632.91
2023-04-23T03:39:34.932Z,99633.78
2023-04-23T03:42:39.068Z,99633.25
2023-04-23T03:45:41.740Z,99633.50
2023-04-23T03:48:44.395Z,99639.19
2023-04-23T03:51:47.029Z,99634.47
2023-04-23T03:54:49.683Z,99642.66
2023-04-23T03:57:53.694Z,99638.06
2023-04-23T04:00:56.538Z,99649.25
2023-04-23T04:03:59.611Z,99647.22
2023-04-23T04:07:03.092Z,99647.88
2023-04-23T04:10:07.852Z,99645.03
2023-04-23T04:13:11.920Z,99660.03
2023-04-23T04:16:14.632Z,99639.13
2023-04-23T04:19:17.331Z,99620.06
2023-04-23T04:22:20.023Z,99640.00
2023-04-23T04:25:24.167Z,99647.41
2023-04-23T04:28:28.527Z,99638.25
2023-04-23T04:31:31.387Z,99648.78
2023-04-23T04:34:34.068Z,99652.84
2023-04-23T04:37:36.996Z,99657.84
2023-04-23T04:40:39.947Z,99654.56
2023-04-23T04:43:45.304Z,99647.19
2023-04-23T04:46:48.088Z,99658.94
2023-04-23T04:49:51.544Z,99655.22
2023-04-23T04:52:54.180Z,99664.16
2023-04-23T04:55:56.869Z,99654.81
2023-04-23T04:59:00.919Z,99656.44
2023-04-23T05:02:03.627Z,99649.16
2023-04-23T05:05:08.121Z,99647.19
2023-04-23T05:08:10.985Z,99657.22
2023-04-23T05:11:13.710Z,99649.16
2023-04-23T05:14:17.718Z,99652.84
2023-04-23T05:17:20.495Z,99646.75
2023-04-23T05:20:23.769Z,99656.97
2023-04-23T05:23:26.703Z,99654.56
2023-04-23T05:26:29.781Z,99667.19
2023-04-23T05:29:33.981Z,99667.28
2023-04-23T05:32:37.182Z,99665.34
2023-04-23T05:35:39.975Z,99674.59
2023-04-23T05:38:42.660Z,99670.09
2023-04-23T05:41:45.365Z,99668.88
2023-04-23T05:44:49.442Z,99672.38
2023-04-23T05:47:52.703Z,99673.78
2023-04-23T05:50:55.553Z,99667.38
2023-04-23T05:53:58.538Z,99665.31
2023-04-23T05:57:01.971Z,99671.28
2023-04-23T06:00:09.835Z,99675.84
2023-04-23T06:03:12.876Z,99660.34
2023-04-23T06:06:15.746Z,99659.69
2023-04-23T06:09:18.487Z,99666.38
2023-04-23T06:12:21.239Z,99656.78
2023-04-23T06:15:27.174Z,99653.75
2023-04-23T06:18:30.026Z,99656.19
2023-04-23T06:21:32.762Z,99652.44
2023-04-23T06:24:36.527Z,99651.44
2023-04-23T06:27:39.491Z,99653.50
2023-04-23T06:30:43.502Z,99657.28
2023-04-23T06:33:46.253Z,99651.66
2023-04-23T06:36:49.018Z,99657.59
2023-04-23T06:39:51.701Z,99653.03
2023-04-23T06:42:54.388Z,99649.06
2023-04-23T06:45:58.603Z,99651.31
2023-04-23T06:49:01.273Z,99643.41
2023-04-23T06:52:03.933Z,99642.94
2023-04-23T06:55:07.605Z,99637.91
2023-04-23T06:58:11.891Z,99631.59
2023-04-23T07:01:16.838Z,99625.97
2023-04-23T07:04:19.504Z,99618.78
2023-04-23T07:07:22.182Z,99613.91
2023-04-23T07:10:24.932Z,99613.44
2023-04-23T07:13:27.937Z,99603.00
2023-04-23T07:16:33.945Z,99605.56
2023-04-23T07:19:36.728Z,99591.38
2023-04-23T07:22:39.475Z,99597.81
2023-04-23T07:25:42.198Z,99598.94
2023-04-23T07:28:47.329Z,99603.28
2023-04-23T07:31:51.475Z,99594.19
2023-04-23T07:34:54.183Z,99605.22
2023-04-23T07:37:57.971Z,99600.19
2023-04-23T07:41:00.721Z,99606.06
2023-04-23T07:44:03.802Z,99603.25
2023-04-23T07:47:07.851Z,99610.34
2023-04-23T07:50:10.923Z,99605.50
2023-04-23T07:53:13.567Z,99607.97
2023-04-23T07:56:16.259Z,99602.28
2023-04-23T07:59:19.044Z,99607.25
2023-04-23T08:02:26.257Z,99590.34
2023-04-23T08:05:29.680Z,99586.09
2023-04-23T08:08:32.454Z,99587.81
2023-04-23T08:11:35.069Z,99577.97
2023-04-23T08:14:37.854Z,99584.00
2023-04-23T08:17:41.864Z,99573.44
2023-04-23T08:20:44.678Z,99569.22
2023-04-23T08:23:47.535Z,99567.22
2023-04-23T08:26:50.301Z,99560.97
2023-04-23T08:29:53.117Z,99564.91
2023-04-23T08:32:58.106Z,99558.81
2023-04-23T08:36:02.250Z,99554.94
2023-04-23T08:39:05.717Z,99560.22
2023-04-23T08:42:12.694Z,99542.38
2023-04-23T08:45:15.702Z,99559.56
2023-04-23T08:48:20.901Z,99552.41
2023-04-23T08:51:27.140Z,99547.09
2023-04-23T08:54:32.600Z,99546.00
2023-04-23T08:57:35.725Z,99543.16
2023-04-23T09:00:39.739Z,99542.47
2023-04-23T09:03:44.025Z,99540.16
2023-04-23T09:06:46.976Z,99547.22
2023-04-23T09:09:49.761Z,99542.78
2023-04-23T09:12:52.704Z,99542.53
2023-04-23T09:15:55.353Z,99541.53
2023-04-23T09:19:00.719Z,99529.97
2023-04-23T09:22:03.774Z,99525.81
2023-04-23T09:25:07.877Z,99518.25
2023-04-23T09:28:11.291Z,99514.81
2023-04-23T09:31:14.267Z,99513.06
2023-04-23T09:34:19.338Z,99516.22
2023-04-23T09:37:26.588Z,99508.81
2023-04-23T09:40:29.334Z,99511.56
2023-04-23T09:43:32.014Z,99498.94
2023-04-23T09:46:36.435Z,99504.56
2023-04-23T09:49:51.767Z,99499.72
2023-04-23T09:52:57.078Z,99492.09
2023-04-23T09:55:59.777Z,99483.59
2023-04-23T09:59:02.419Z,99492.53
2023-04-23T10:02:07.923Z,99486.13
2023-04-23T10:05:24.363Z,99480.63
2023-04-23T10:08:28.898Z,99484.94
2023-04-23T10:11:31.766Z,99470.53
2023-04-23T10:14:35.013Z,99459.00
2023-04-23T10:17:38.997Z,99455.59
2023-04-23T10:20:43.882Z,99446.22
2023-04-23T10:23:48.704Z,99450.00
2023-04-23T10:26:53.980Z,99449.88
2023-04-23T10:29:58.791Z,99442.34
2023-04-23T10:33:03.247Z,99431.19
2023-04-23T10:36:08.480Z,99428.38
2023-04-23T10:39:12.291Z,99425.97
2023-04-23T10:42:15.576Z,99415.38
2023-04-23T10:48:28.849Z,99398.94
2023-04-23T10:55:00.123Z,99397.72
2023-04-23T10:58:05.339Z,99390.50
2023-04-23T11:01:08.034Z,99383.06
2023-04-23T11:04:24.528Z,99385.50
2023-04-23T11:07:32.621Z,99388.75
2023-04-23T11:10:36.121Z,99384.44
2023-04-23T11:13:52.776Z,99385.63
2023-04-23T11:16:55.529Z,99382.44
2023-04-23T11:20:14.026Z,99378.56
2023-04-23T11:23:33.363Z,99367.16
2023-04-23T11:26:37.509Z,99366.97
2023-04-23T11:29:42.415Z,99356.28
2023-04-23T11:32:47.837Z,99361.19
2023-04-23T11:35:51.333Z,99355.34
2023-04-23T11:38:58.358Z,99350.78
2023-04-23T11:42:03.476Z,99347.75
2023-04-23T11:45:07.420Z,99339.00
2023-04-23T11:48:10.280Z,99341.91
2023-04-23T11:51:13.027Z,99333.78
2023-04-23T11:54:17.218Z,99336.00
2023-04-23T11:57:19.885Z,99337.34
2023-04-23T12:00:24.948Z,99323.59
2023-04-23T12:03:29.339Z,99320.69
2023-04-23T12:06:32.070Z,99319.69
2023-04-23T12:09:38.083Z,99313.47
2023-04-23T12:12:40.757Z,99304.34
2023-04-23T12:15:48.407Z,99305.22
2023-04-23T12:18:54.906Z,99305.78
2023-04-23T12:21:59.830Z,99308.88
2023-04-23T12:25:09.467Z,99291.44
2023-04-23T12:28:12.205Z,99292.13
2023-04-23T12:31:20.112Z,99277.47
2023-04-23T12:34:22.894Z,99284.88
2023-04-23T12:37:27.461Z,99276.59
2023-04-23T12:40:31.653Z,99274.53
2023-04-23T12:43:34.382Z,99265.22
2023-04-23T12:46:37.060Z,99255.66
2023-04-23T12:49:41.388Z,99248.19
2023-04-23T12:52:44.299Z,99254.75
2023-04-23T12:55:50.180Z,99243.44
2023-04-23T12:58:53.001Z,99242.19
2023-04-23T13:01:56.413Z,99225.31
2023-04-23T13:05:01.178Z,99212.06
2023-04-23T13:08:04.333Z,99216.94
2023-04-23T13:11:08.322Z,99223.06
2023-04-23T13:14:11.083Z,99207.00
2023-04-23T13:17:13.712Z,99204.22
2023-04-23T13:20:16.919Z,99197.16
2023-04-23T13:23:19.609Z,99190.75
2023-04-23T13:26:24.107Z,99177.22
2023-04-23T13:29:27.395Z,99173.56
2023-04-23T13:32:32.310Z,99169.97
2023-04-23T13:35:37.583Z,99172.97
2023-04-23T13:38:40.595Z,99160.19
2023-04-23T13:41:45.665Z,99164.16
2023-04-23T13:44:49.349Z,99167.16
2023-04-23T13:47:52.094Z,99162.13
2023-04-23T13:50:54.787Z,99149.31
2023-04-23T13:53:58.254Z,99151.25
2023-04-23T13:57:03.987Z,99123.44
2023-04-23T14:00:08.312Z,99131.72
2023-04-23T14:03:11.235Z,99134.88
2023-04-23T14:06:14.019Z,99126.63
2023-04-23T14:09:16.690Z,99127.81
2023-04-23T14:12:20.967Z,99122.34
2023-04-23T14:15:24.110Z,99116.63
2023-04-23T14:18:26.799Z,99111.69
2023-04-23T14:21:29.552Z,99112.03
2023-04-23T14:24:35.620Z,99100.97
2023-04-23T14:27:46.220Z,99095.44
2023-04-23T14:30:49.030Z,99090.91
2023-04-23T14:33:52.056Z,99086.81
2023-04-23T14:36:54.891Z,99077.50
2023-04-23T14:39:57.809Z,99072.84
2023-04-23T14:43:14.531Z,99042.56
2023-04-23T14:46:18.419Z,99077.38
2023-04-23T14:49:21.775Z,99072.03
2023-04-23T14:52:24.551Z,99060.63
2023-04-23T14:55:28.052Z,99058.53
2023-04-23T14:58:32.218Z,99054.72
2023-04-23T15:01:35.087Z,99042.63
2023-04-23T15:04:38.029Z,99044.50
2023-04-23T15:07:41.309Z,99031.88
2023-04-23T15:10:44.806Z,99035.50
2023-04-23T15:13:58.313Z,99022.72
2023-04-23T15:17:01.187Z,99028.13
2023-04-23T15:20:04.365Z,99026.41
2023-04-23T15:23:07.122Z,99028.84
2023-04-23T15:26:09.868Z,99020.94
2023-04-23T15:29:14.174Z,99020.28
2023-04-23T15:32:17.084Z,99022.69
2023-04-23T15:35:20.056Z,99016.50
2023-04-23T15:38:23.123Z,99009.47
2023-04-23T15:41:27.143Z,99017.22
2023-04-23T15:44:31.170Z,99009.66
2023-04-23T15:47:33.826Z,99010.53
2023-04-23T15:50:36.744Z,98997.94
2023-04-23T15:53:39.559Z,99000.38
2023-04-23T15:56:42.236Z,99001.72
2023-04-23T15:59:46.253Z,98996.22
2023-04-23T16:02:49.466Z,98996.75
2023-04-23T16:05:52.350Z,99003.63
2023-04-23T16:08:55.127Z,98994.19
2023-04-23T16:11:57.801Z,98993.84
2023-04-23T16:15:02.157Z,98985.56
2023-04-23T16:18:06.303Z,98979.16
2023-04-23T16:21:09.149Z,98982.81
2023-04-23T16:24:11.831Z,98973.50
2023-04-23T16:27:14.847Z,98970.06
2023-04-23T16:30:19.035Z,98960.53
2023-04-23T16:33:23.978Z,98957.28
2023-04-23T16:36:26.887Z,98952.13
2023-04-23T16:39:29.546Z,98947.31
2023-04-23T16:42:32.342Z,98937.88
2023-04-23T16:45:37.983Z,98938.38
2023-04-23T16:48:42.239Z,98939.75
2023-04-23T16:51:45.084Z,98941.94
2023-04-23T16:54:49.342Z,98934.38
2023-04-23T16:57:52.166Z,98923.50
2023-04-23T17:00:56.647Z,98921.91
2023-04-23T17:03:59.538Z,98927.94
2023-04-23T17:07:02.467Z,98929.59
2023-04-23T17:10:05.905Z,98936.25
2023-04-23T17:13:08.693Z,98946.69
2023-04-23T17:16:12.891Z,98956.94
2023-04-23T17:19:16.142Z,99014.94
2023-04-23T17:22:18.952Z,99083.53
2023-04-23T17:25:21.676Z,99139.59
2023-04-23T17:28:24.464Z,99171.88
2023-04-23T17:31:28.599Z,99185.72
2023-04-23T17:34:31.284Z,99163.72
2023-04-23T17:37:34.279Z,99154.56
2023-04-23T17:40:37.485Z,99140.28
2023-04-23T17:43:41.696Z,99152.66
2023-04-23T17:46:45.707Z,99168.13
2023-04-23T17:49:48.408Z,99165.69
2023-04-23T17:52:52.308Z,99147.69
2023-04-23T17:56:00.186Z,99147.56
2023-04-23T17:59:03.764Z,99164.31
2023-04-23T18:02:08.057Z,99167.63
2023-04-23T18:05:12.820Z,99157.69
2023-04-23T18:08:17.204Z,99153.34
2023-04-23T18:11:20.051Z,99164.91
2023-04-23T18:14:22.845Z,99161.59
2023-04-23T18:17:26.975Z,99162.47
2023-04-23T18:20:30.314Z,99155.50
2023-04-23T18:23:33.036Z,99146.72
2023-04-23T18:26:36.027Z,99136.19
2023-04-23T18:29:38.697Z,99142.38
2023-04-23T18:32:48.465Z,99141.88
2023-04-23T18:35:53.225Z,99143.22
2023-04-23T18:38:56.278Z,99143.50
2023-04-23T18:41:59.226Z,99150.03
2023-04-23T18:45:04.449Z,99156.72
2023-04-23T18:48:39.060Z,99150.13
2023-04-23T18:51:45.728Z,99157.44
2023-04-23T18:54:48.386Z,99163.00
2023-04-23T18:57:51.056Z,99176.22
2023-04-23T19:00:53.771Z,99166.69
2023-04-23T19:03:57.993Z,99164.19
2023-04-23T19:07:01.201Z,99163.38
2023-04-23T19:10:08.576Z,99166.31
2023-04-23T19:13:11.481Z,99166.78
2023-04-23T19:16:16.317Z,99165.94
2023-04-23T19:19:20.430Z,99150.69
2023-04-23T19:22:25.701Z,99143.75
2023-04-23T19:25:28.418Z,99145.25
2023-04-23T19:28:31.275Z,99148.44
2023-04-23T19:31:34.123Z,99148.44
2023-04-23T19:34:38.168Z,99134.56
2023-04-23T19:37:40.915Z,99121.84
2023-04-23T19:40:44.115Z,99116.25
2023-04-23T19:43:47.234Z,99139.38
2023-04-23T19:46:51.128Z,99137.78
2023-04-23T19:49:56.251Z,99159.63
2023-04-23T19:52:59.008Z,99167.94
2023-04-23T19:56:02.161Z,99172.00
2023-04-23T19:59:06.956Z,99160.50
2023-04-23T20:02:10.319Z,99165.19
2023-04-23T20:05:14.452Z,99158.22
2023-04-23T20:08:26.251Z,99161.91
2023-04-23T20:11:29.166Z,99161.19
2023-04-23T20:14:32.758Z,99168.56
2023-04-23T20:17:36.212Z,99164.63
2023-04-23T20:20:41.961Z,99162.34
2023-04-23T20:23:44.684Z,99164.72
2023-04-23T20:26:47.390Z,99163.72
2023-04-23T20:29:50.098Z,99157.81
2023-04-23T20:32:52.885Z,99172.66
2023-04-23T20:35:58.748Z,99174.59
2023-04-23T20:39:04.968Z,99156.19
2023-04-23T20:42:08.790Z,99181.50
2023-04-23T20:45:14.325Z,99187.25
2023-04-23T20:48:17.072Z,99199.13
2023-04-23T20:51:21.452Z,99182.94
2023-04-23T20:54:24.122Z,99208.97
2023-04-23T20:57:29.085Z,99210.69
2023-04-23T21:00:31.806Z,99209.88
2023-04-23T21:03:36.908Z,99213.34
2023-04-23T21:06:41.228Z,99211.84
2023-04-23T21:09:44.466Z,99204.25
2023-04-23T21:12:47.775Z,99207.59
2023-04-23T21:15:51.342Z,99206.84
2023-04-23T21:18:54.257Z,99192.19
2023-04-23T21:21:58.328Z,99200.09
2023-04-23T21:25:01.094Z,99184.47
2023-04-23T21:28:04.460Z,99198.03
2023-04-23T21:31:12.902Z,99214.34
2023-04-23T21:34:15.894Z,99205.94
2023-04-23T21:37:19.917Z,99195.94
2023-04-23T21:40:23.286Z,99206.09
2023-04-23T21:43:26.216Z,99205.75
2023-04-23T21:46:30.335Z,99204.13
2023-04-23T21:49:33.195Z,99213.09
2023-04-23T21:52:37.840Z,99197.47
2023-04-23T21:55:40.646Z,99198.00
2023-04-23T21:58:44.364Z,99207.56
2023-04-23T22:01:47.336Z,99202.66
2023-04-23T22:04:50.375Z,99195.72
2023-04-23T22:07:55.455Z,99207.44
2023-04-23T22:10:58.380Z,99200.25
2023-04-23T22:14:02.179Z,99204.72
2023-04-23T22:17:05.073Z,99196.38
2023-04-23T22:20:09.692Z,99210.56
2023-04-23T22:23:13.715Z,99199.81
2023-04-23T22:26:16.428Z,99193.22
2023-04-23T22:29:19.131Z,99208.00
2023-04-23T22:32:21.749Z,99214.78
2023-04-23T22:35:24.606Z,99211.13
2023-04-23T22:38:28.656Z,99210.38
2023-04-23T22:41:33.132Z,99210.25
2023-04-23T22:44:36.978Z,99221.72
2023-04-23T22:47:39.750Z,99210.22
2023-04-23T22:50:42.723Z,99215.66
2023-04-23T22:53:46.726Z,99214.88
2023-04-23T22:56:49.378Z,99215.75
2023-04-23T22:59:52.195Z,99216.44
2023-04-23T23:02:54.937Z,99210.03
2023-04-23T23:05:57.637Z,99200.88
2023-04-23T23:09:02.163Z,99196.31
2023-04-23T23:12:05.646Z,99201.13
2023-04-23T23:15:09.529Z,99193.06
2023-04-23T23:18:12.340Z,99200.44
2023-04-23T23:21:15.914Z,99208.69
2023-04-23T23:24:20.036Z,99205.97
2023-04-23T23:27:22.719Z,99208.69
2023-04-23T23:30:25.972Z,99211.72
2023-04-23T23:33:29.401Z,99198.25
2023-04-23T23:36:32.989Z,99192.19
2023-04-23T23:39:36.996Z,99203.16
2023-04-23T23:42:39.659Z,99191.31
2023-04-23T23:45:42.350Z,99193.06
2023-04-23T23:48:45.308Z,99187.84
2023-04-23T23:51:48.443Z,99180.88
2023-04-23T23:54:52.452Z,99189.88
2023-04-23T23:57:55.460Z,99186.09
